sensor_id;sensor_type;location;lat;lon;timestamp;pressure;altitude;pressure_sealevel;temperature;humidity
76166;BME280;65085;46.718;20.136;2023-02-04T00:02:44;100459.38;;;4.70;78.16
76166;BME280;65085;46.718;20.136;2023-02-04T00:05:46;100456.78;;;4.61;78.47
76166;BME280;65085;46.718;20.136;2023-02-04T00:08:49;100452.72;;;4.43;79.16
76166;BME280;65085;46.718;20.136;2023-02-04T00:11:52;100440.41;;;4.54;78.22
76166;BME280;65085;46.718;20.136;2023-02-04T00:14:56;100432.69;;;4.53;78.46
76166;BME280;65085;46.718;20.136;2023-02-04T00:17:59;100431.44;;;4.50;78.58
76166;BME280;65085;46.718;20.136;2023-02-04T00:21:02;100427.84;;;4.46;78.71
76166;BME280;65085;46.718;20.136;2023-02-04T00:24:05;100427.50;;;4.36;79.36
76166;BME280;65085;46.718;20.136;2023-02-04T00:27:08;100424.91;;;4.27;79.57
76166;BME280;65085;46.718;20.136;2023-02-04T00:30:13;100431.16;;;4.19;80.03
76166;BME280;65085;46.718;20.136;2023-02-04T00:33:15;100434.16;;;4.18;80.13
76166;BME280;65085;46.718;20.136;2023-02-04T00:36:18;100445.47;;;4.11;80.48
76166;BME280;65085;46.718;20.136;2023-02-04T00:39:21;100446.03;;;4.17;80.01
76166;BME280;65085;46.718;20.136;2023-02-04T00:42:24;100438.44;;;4.19;80.12
76166;BME280;65085;46.718;20.136;2023-02-04T00:45:28;100451.41;;;4.05;80.52
76166;BME280;65085;46.718;20.136;2023-02-04T00:48:30;100442.00;;;4.11;80.58
76166;BME280;65085;46.718;20.136;2023-02-04T00:51:33;100431.34;;;4.14;80.44
76166;BME280;65085;46.718;20.136;2023-02-04T00:54:36;100424.28;;;4.10;80.33
76166;BME280;65085;46.718;20.136;2023-02-04T00:57:38;100418.91;;;4.10;80.43
76166;BME280;65085;46.718;20.136;2023-02-04T01:00:42;100420.59;;;4.02;80.70
76166;BME280;65085;46.718;20.136;2023-02-04T01:03:45;100402.66;;;4.06;80.62
76166;BME280;65085;46.718;20.136;2023-02-04T01:06:48;100415.53;;;4.01;80.83
76166;BME280;65085;46.718;20.136;2023-02-04T01:09:51;100418.16;;;4.09;80.80
76166;BME280;65085;46.718;20.136;2023-02-04T01:12:53;100410.97;;;4.13;80.57
76166;BME280;65085;46.718;20.136;2023-02-04T01:15:58;100412.53;;;4.14;80.68
76166;BME280;65085;46.718;20.136;2023-02-04T01:19:00;100408.28;;;4.13;80.86
76166;BME280;65085;46.718;20.136;2023-02-04T01:22:03;100408.75;;;4.15;80.57
76166;BME280;65085;46.718;20.136;2023-02-04T01:25:07;100407.78;;;4.32;79.86
76166;BME280;65085;46.718;20.136;2023-02-04T01:28:16;100397.03;;;4.32;79.93
76166;BME280;65085;46.718;20.136;2023-02-04T01:31:20;100391.31;;;4.33;79.84
76166;BME280;65085;46.718;20.136;2023-02-04T01:34:23;100382.56;;;4.36;79.49
76166;BME280;65085;46.718;20.136;2023-02-04T01:37:27;100383.25;;;4.33;79.77
76166;BME280;65085;46.718;20.136;2023-02-04T01:40:30;100384.13;;;4.37;79.77
76166;BME280;65085;46.718;20.136;2023-02-04T01:43:33;100375.84;;;4.42;79.23
76166;BME280;65085;46.718;20.136;2023-02-04T01:46:37;100374.06;;;4.46;78.76
76166;BME280;65085;46.718;20.136;2023-02-04T01:49:40;100375.28;;;4.49;79.23
76166;BME280;65085;46.718;20.136;2023-02-04T01:52:44;100371.16;;;4.39;79.57
76166;BME280;65085;46.718;20.136;2023-02-04T01:55:47;100362.63;;;4.49;79.29
76166;BME280;65085;46.718;20.136;2023-02-04T01:58:51;100363.75;;;4.60;78.80
76166;BME280;65085;46.718;20.136;2023-02-04T02:01:56;100360.41;;;4.63;78.51
76166;BME280;65085;46.718;20.136;2023-02-04T02:04:58;100352.09;;;4.68;78.53
76166;BME280;65085;46.718;20.136;2023-02-04T02:08:02;100359.94;;;4.73;78.36
76166;BME280;65085;46.718;20.136;2023-02-04T02:11:06;100358.13;;;4.77;78.09
76166;BME280;65085;46.718;20.136;2023-02-04T02:14:09;100350.59;;;4.83;78.04
76166;BME280;65085;46.718;20.136;2023-02-04T02:17:13;100348.50;;;4.76;78.62
76166;BME280;65085;46.718;20.136;2023-02-04T02:20:17;100351.53;;;4.87;78.00
76166;BME280;65085;46.718;20.136;2023-02-04T02:23:25;100354.00;;;4.92;77.72
76166;BME280;65085;46.718;20.136;2023-02-04T02:26:33;100359.56;;;4.99;77.55
76166;BME280;65085;46.718;20.136;2023-02-04T02:29:37;100349.91;;;4.98;77.51
76166;BME280;65085;46.718;20.136;2023-02-04T02:32:42;100355.56;;;4.93;77.88
76166;BME280;65085;46.718;20.136;2023-02-04T02:35:46;100356.69;;;4.92;77.87
76166;BME280;65085;46.718;20.136;2023-02-04T02:38:52;100359.66;;;5.02;77.60
76166;BME280;65085;46.718;20.136;2023-02-04T02:41:56;100355.19;;;4.94;77.51
76166;BME280;65085;46.718;20.136;2023-02-04T02:45:02;100356.00;;;4.95;77.75
76166;BME280;65085;46.718;20.136;2023-02-04T02:48:08;100354.22;;;4.87;77.87
76166;BME280;65085;46.718;20.136;2023-02-04T02:51:12;100355.56;;;4.93;77.77
76166;BME280;65085;46.718;20.136;2023-02-04T02:54:20;100352.50;;;4.94;77.37
76166;BME280;65085;46.718;20.136;2023-02-04T02:57:26;100344.78;;;4.93;77.44
76166;BME280;65085;46.718;20.136;2023-02-04T03:00:29;100356.69;;;4.92;78.01
76166;BME280;65085;46.718;20.136;2023-02-04T03:03:35;100350.94;;;4.93;77.81
76166;BME280;65085;46.718;20.136;2023-02-04T03:06:38;100350.94;;;4.93;77.87
76166;BME280;65085;46.718;20.136;2023-02-04T03:09:42;100351.19;;;4.88;78.20
76166;BME280;65085;46.718;20.136;2023-02-04T03:12:46;100349.81;;;4.94;77.85
76166;BME280;65085;46.718;20.136;2023-02-04T03:15:51;100348.59;;;4.92;78.08
76166;BME280;65085;46.718;20.136;2023-02-04T03:18:55;100352.22;;;4.84;78.80
76166;BME280;65085;46.718;20.136;2023-02-04T03:21:58;100354.97;;;4.99;78.00
76166;BME280;65085;46.718;20.136;2023-02-04T03:25:01;100345.41;;;5.14;77.57
76166;BME280;65085;46.718;20.136;2023-02-04T03:28:06;100345.19;;;5.07;77.63
76166;BME280;65085;46.718;20.136;2023-02-04T03:31:08;100345.72;;;5.24;76.65
76166;BME280;65085;46.718;20.136;2023-02-04T03:34:11;100341.22;;;5.28;77.33
76166;BME280;65085;46.718;20.136;2023-02-04T03:37:15;100332.13;;;5.33;76.20
76166;BME280;65085;46.718;20.136;2023-02-04T03:40:18;100328.81;;;5.39;76.23
76166;BME280;65085;46.718;20.136;2023-02-04T03:43:22;100330.81;;;5.42;76.08
76166;BME280;65085;46.718;20.136;2023-02-04T03:46:24;100321.16;;;5.53;75.43
76166;BME280;65085;46.718;20.136;2023-02-04T03:49:28;100312.03;;;5.58;75.34
76166;BME280;65085;46.718;20.136;2023-02-04T03:52:33;100312.78;;;5.58;75.87
76166;BME280;65085;46.718;20.136;2023-02-04T03:55:36;100313.59;;;5.59;75.80
76166;BME280;65085;46.718;20.136;2023-02-04T03:58:40;100311.59;;;5.56;76.01
76166;BME280;65085;46.718;20.136;2023-02-04T04:01:43;100313.00;;;5.65;75.48
76166;BME280;65085;46.718;20.136;2023-02-04T04:04:45;100297.34;;;5.55;76.16
76166;BME280;65085;46.718;20.136;2023-02-04T04:07:48;100301.34;;;5.61;76.02
76166;BME280;65085;46.718;20.136;2023-02-04T04:10:50;100296.16;;;5.68;75.35
76166;BME280;65085;46.718;20.136;2023-02-04T04:13:55;100299.78;;;5.76;75.25
76166;BME280;65085;46.718;20.136;2023-02-04T04:16:57;100304.41;;;5.75;75.26
76166;BME280;65085;46.718;20.136;2023-02-04T04:20:00;100299.47;;;5.77;74.54
76166;BME280;65085;46.718;20.136;2023-02-04T04:23:03;100305.53;;;5.74;74.98
76166;BME280;65085;46.718;20.136;2023-02-04T04:26:05;100305.44;;;5.71;75.08
76166;BME280;65085;46.718;20.136;2023-02-04T04:29:09;100291.63;;;5.72;74.96
76166;BME280;65085;46.718;20.136;2023-02-04T04:32:12;100301.28;;;5.73;74.63
76166;BME280;65085;46.718;20.136;2023-02-04T04:35:15;100296.16;;;5.68;75.16
76166;BME280;65085;46.718;20.136;2023-02-04T04:38:18;100292.66;;;5.68;74.88
76166;BME280;65085;46.718;20.136;2023-02-04T04:41:20;100307.34;;;5.70;74.38
76166;BME280;65085;46.718;20.136;2023-02-04T04:44:25;100290.66;;;5.65;74.60
76166;BME280;65085;46.718;20.136;2023-02-04T04:47:27;100292.47;;;5.61;75.13
76166;BME280;65085;46.718;20.136;2023-02-04T04:50:31;100297.63;;;5.66;74.51
76166;BME280;65085;46.718;20.136;2023-02-04T04:53:34;100302.81;;;5.59;75.13
76166;BME280;65085;46.718;20.136;2023-02-04T04:56:38;100291.84;;;5.52;75.11
76166;BME280;65085;46.718;20.136;2023-02-04T04:59:42;100295.56;;;5.47;75.03
76166;BME280;65085;46.718;20.136;2023-02-04T05:02:44;100294.53;;;5.52;74.74
76166;BME280;65085;46.718;20.136;2023-02-04T05:05:47;100302.19;;;5.50;75.04
76166;BME280;65085;46.718;20.136;2023-02-04T05:08:50;100310.16;;;5.46;75.08
76166;BME280;65085;46.718;20.136;2023-02-04T05:11:53;100306.31;;;5.59;74.37
76166;BME280;65085;46.718;20.136;2023-02-04T05:14:57;100319.84;;;5.63;74.33
76166;BME280;65085;46.718;20.136;2023-02-04T05:17:59;100311.59;;;5.56;74.51
76166;BME280;65085;46.718;20.136;2023-02-04T05:21:02;100314.38;;;5.59;74.14
76166;BME280;65085;46.718;20.136;2023-02-04T05:24:05;100315.16;;;5.60;74.97
76166;BME280;65085;46.718;20.136;2023-02-04T05:27:08;100315.50;;;5.58;74.80
76166;BME280;65085;46.718;20.136;2023-02-04T05:30:13;100322.38;;;5.56;75.12
76166;BME280;65085;46.718;20.136;2023-02-04T05:33:16;100322.31;;;5.68;75.11
76166;BME280;65085;46.718;20.136;2023-02-04T05:36:19;100315.69;;;5.65;74.96
76166;BME280;65085;46.718;20.136;2023-02-04T05:39:21;100321.25;;;5.72;74.67
76166;BME280;65085;46.718;20.136;2023-02-04T05:42:25;100316.28;;;5.59;74.90
76166;BME280;65085;46.718;20.136;2023-02-04T05:45:29;100315.19;;;5.75;74.22
76166;BME280;65085;46.718;20.136;2023-02-04T05:48:32;100314.19;;;5.80;74.00
76166;BME280;65085;46.718;20.136;2023-02-04T05:51:35;100313.72;;;5.78;74.65
76166;BME280;65085;46.718;20.136;2023-02-04T05:54:37;100321.34;;;5.88;73.78
76166;BME280;65085;46.718;20.136;2023-02-04T05:57:40;100313.50;;;5.83;74.26
76166;BME280;65085;46.718;20.136;2023-02-04T06:00:44;100308.97;;;5.87;74.19
76166;BME280;65085;46.718;20.136;2023-02-04T06:03:47;100314.34;;;5.87;74.77
76166;BME280;65085;46.718;20.136;2023-02-04T06:06:50;100296.19;;;5.84;74.54
76166;BME280;65085;46.718;20.136;2023-02-04T06:09:53;100309.94;;;5.94;74.20
76166;BME280;65085;46.718;20.136;2023-02-04T06:12:55;100312.13;;;5.89;74.77
76166;BME280;65085;46.718;20.136;2023-02-04T06:15:59;100312.53;;;5.91;74.70
76166;BME280;65085;46.718;20.136;2023-02-04T06:19:03;100311.22;;;5.85;75.50
76166;BME280;65085;46.718;20.136;2023-02-04T06:22:06;100304.38;;;5.87;75.17
76166;BME280;65085;46.718;20.136;2023-02-04T06:25:09;100310.81;;;5.83;75.39
76166;BME280;65085;46.718;20.136;2023-02-04T06:28:11;100311.50;;;5.80;76.36
76166;BME280;65085;46.718;20.136;2023-02-04T06:31:15;100308.53;;;5.85;75.59
76166;BME280;65085;46.718;20.136;2023-02-04T06:34:18;100306.81;;;5.92;75.53
76166;BME280;65085;46.718;20.136;2023-02-04T06:37:21;100286.09;;;5.81;75.80
76166;BME280;65085;46.718;20.136;2023-02-04T06:40:25;100293.06;;;5.97;75.25
76166;BME280;65085;46.718;20.136;2023-02-04T06:43:28;100293.59;;;5.87;75.90
76166;BME280;65085;46.718;20.136;2023-02-04T06:46:32;100289.09;;;5.91;75.69
76166;BME280;65085;46.718;20.136;2023-02-04T06:49:35;100271.50;;;5.97;74.73
76166;BME280;65085;46.718;20.136;2023-02-04T06:52:38;100276.78;;;5.94;75.13
76166;BME280;65085;46.718;20.136;2023-02-04T06:55:40;100270.53;;;5.90;75.71
76166;BME280;65085;46.718;20.136;2023-02-04T06:58:43;100259.94;;;5.97;74.82
76166;BME280;65085;46.718;20.136;2023-02-04T07:01:47;100267.50;;;6.07;74.33
76166;BME280;65085;46.718;20.136;2023-02-04T07:04:50;100263.41;;;6.13;74.20
76166;BME280;65085;46.718;20.136;2023-02-04T07:07:52;100280.19;;;6.22;72.98
76166;BME280;65085;46.718;20.136;2023-02-04T07:10:55;100275.47;;;6.19;73.47
76166;BME280;65085;46.718;20.136;2023-02-04T07:13:58;100264.94;;;6.29;72.28
76166;BME280;65085;46.718;20.136;2023-02-04T07:17:02;100273.50;;;6.31;72.11
76166;BME280;65085;46.718;20.136;2023-02-04T07:20:05;100276.69;;;6.37;71.64
76166;BME280;65085;46.718;20.136;2023-02-04T07:23:08;100287.91;;;6.39;70.92
76166;BME280;65085;46.718;20.136;2023-02-04T07:26:11;100284.69;;;6.49;70.32
76166;BME280;65085;46.718;20.136;2023-02-04T07:29:14;100282.34;;;6.47;70.79
76166;BME280;65085;46.718;20.136;2023-02-04T07:32:28;100290.06;;;6.49;70.58
76166;BME280;65085;46.718;20.136;2023-02-04T07:35:34;100300.09;;;6.48;71.17
76166;BME280;65085;46.718;20.136;2023-02-04T07:38:36;100293.91;;;6.48;71.08
76166;BME280;65085;46.718;20.136;2023-02-04T07:41:39;100294.63;;;6.45;70.56
76166;BME280;65085;46.718;20.136;2023-02-04T07:44:42;100291.63;;;6.50;69.30
76166;BME280;65085;46.718;20.136;2023-02-04T07:47:46;100300.78;;;6.45;68.72
76166;BME280;65085;46.718;20.136;2023-02-04T07:50:50;100305.50;;;6.48;69.52
76166;BME280;65085;46.718;20.136;2023-02-04T07:53:53;100314.34;;;6.49;68.90
76166;BME280;65085;46.718;20.136;2023-02-04T07:56:55;100327.59;;;6.54;68.06
76166;BME280;65085;46.718;20.136;2023-02-04T07:59:58;100315.91;;;6.50;66.07
76166;BME280;65085;46.718;20.136;2023-02-04T08:03:02;100327.50;;;6.50;66.33
76166;BME280;65085;46.718;20.136;2023-02-04T08:06:05;100337.69;;;6.57;66.13
76166;BME280;65085;46.718;20.136;2023-02-04T08:09:08;100352.22;;;6.52;66.52
76166;BME280;65085;46.718;20.136;2023-02-04T08:12:11;100353.34;;;6.51;64.95
76166;BME280;65085;46.718;20.136;2023-02-04T08:15:14;100363.44;;;6.54;66.31
76166;BME280;65085;46.718;20.136;2023-02-04T08:18:18;100374.69;;;6.56;65.28
76166;BME280;65085;46.718;20.136;2023-02-04T08:21:21;100380.94;;;6.60;64.92
76166;BME280;65085;46.718;20.136;2023-02-04T08:24:24;100384.94;;;6.51;64.07
76166;BME280;65085;46.718;20.136;2023-02-04T08:27:27;100383.66;;;6.60;64.71
76166;BME280;65085;46.718;20.136;2023-02-04T08:30:30;100386.09;;;6.65;63.65
76166;BME280;65085;46.718;20.136;2023-02-04T08:33:35;100385.63;;;6.79;64.11
76166;BME280;65085;46.718;20.136;2023-02-04T08:36:38;100387.44;;;6.90;63.52
76166;BME280;65085;46.718;20.136;2023-02-04T08:39:41;100392.34;;;6.85;63.15
76166;BME280;65085;46.718;20.136;2023-02-04T08:42:47;100403.53;;;7.02;63.36
76166;BME280;65085;46.718;20.136;2023-02-04T08:45:50;100406.00;;;6.92;61.63
76166;BME280;65085;46.718;20.136;2023-02-04T08:48:54;100409.97;;;7.13;62.35
76166;BME280;65085;46.718;20.136;2023-02-04T08:51:57;100412.19;;;6.92;61.72
76166;BME280;65085;46.718;20.136;2023-02-04T08:55:00;100417.91;;;7.06;61.18
76166;BME280;65085;46.718;20.136;2023-02-04T08:58:02;100426.19;;;6.97;61.10
76166;BME280;65085;46.718;20.136;2023-02-04T09:01:05;100446.75;;;7.02;60.83
76166;BME280;65085;46.718;20.136;2023-02-04T09:04:10;100448.34;;;7.03;61.20
76166;BME280;65085;46.718;20.136;2023-02-04T09:07:12;100454.94;;;7.05;60.58
76166;BME280;65085;46.718;20.136;2023-02-04T09:10:15;100464.66;;;7.25;60.93
76166;BME280;65085;46.718;20.136;2023-02-04T09:13:18;100463.38;;;7.19;59.98
76166;BME280;65085;46.718;20.136;2023-02-04T09:16:21;100480.59;;;7.30;60.86
76166;BME280;65085;46.718;20.136;2023-02-04T09:19:25;100491.59;;;7.22;60.62
76166;BME280;65085;46.718;20.136;2023-02-04T09:22:28;100497.09;;;7.25;59.64
76166;BME280;65085;46.718;20.136;2023-02-04T09:25:31;100506.16;;;7.17;58.98
76166;BME280;65085;46.718;20.136;2023-02-04T09:28:33;100507.19;;;6.97;59.03
76166;BME280;65085;46.718;20.136;2023-02-04T09:31:36;100531.09;;;6.80;59.94
76166;BME280;65085;46.718;20.136;2023-02-04T09:34:41;100528.72;;;6.94;59.69
76166;BME280;65085;46.718;20.136;2023-02-04T09:37:44;100534.91;;;6.79;59.95
76166;BME280;65085;46.718;20.136;2023-02-04T09:40:53;100533.59;;;6.73;61.18
76166;BME280;65085;46.718;20.136;2023-02-04T09:43:57;100542.47;;;6.74;60.73
76166;BME280;65085;46.718;20.136;2023-02-04T09:47:00;100544.72;;;6.56;61.13
76166;BME280;65085;46.718;20.136;2023-02-04T09:50:08;100549.16;;;6.64;60.95
76166;BME280;65085;46.718;20.136;2023-02-04T09:53:18;100557.28;;;6.37;60.75
76166;BME280;65085;46.718;20.136;2023-02-04T09:56:22;100565.72;;;6.35;60.74
76166;BME280;65085;46.718;20.136;2023-02-04T09:59:26;100576.09;;;6.49;61.43
76166;BME280;65085;46.718;20.136;2023-02-04T10:02:30;100591.16;;;6.22;62.52
76166;BME280;65085;46.718;20.136;2023-02-04T10:05:34;100589.53;;;5.94;62.64
76166;BME280;65085;46.718;20.136;2023-02-04T10:08:39;100593.94;;;5.86;65.16
76166;BME280;65085;46.718;20.136;2023-02-04T10:11:43;100610.06;;;5.74;66.96
76166;BME280;65085;46.718;20.136;2023-02-04T10:14:49;100617.72;;;5.48;67.57
76166;BME280;65085;46.718;20.136;2023-02-04T10:17:54;100622.44;;;5.39;69.61
76166;BME280;65085;46.718;20.136;2023-02-04T10:21:10;100626.94;;;5.35;70.90
76166;BME280;65085;46.718;20.136;2023-02-04T10:24:16;100643.13;;;5.59;70.65
76166;BME280;65085;46.718;20.136;2023-02-04T10:27:20;100645.00;;;5.47;70.31
76166;BME280;65085;46.718;20.136;2023-02-04T10:30:24;100653.06;;;5.47;73.28
76166;BME280;65085;46.718;20.136;2023-02-04T10:33:27;100645.69;;;5.56;69.94
76166;BME280;65085;46.718;20.136;2023-02-04T10:36:32;100651.19;;;5.71;69.67
76166;BME280;65085;46.718;20.136;2023-02-04T10:39:41;100650.75;;;5.81;68.52
76166;BME280;65085;46.718;20.136;2023-02-04T10:42:47;100660.63;;;6.13;66.57
76166;BME280;65085;46.718;20.136;2023-02-04T10:45:55;100657.31;;;6.44;64.59
76166;BME280;65085;46.718;20.136;2023-02-04T10:48:58;100656.88;;;6.69;64.56
76166;BME280;65085;46.718;20.136;2023-02-04T10:52:13;100659.78;;;6.76;63.96
76166;BME280;65085;46.718;20.136;2023-02-04T10:55:19;100675.31;;;6.79;63.72
76166;BME280;65085;46.718;20.136;2023-02-04T10:58:26;100700.75;;;6.66;63.51
76166;BME280;65085;46.718;20.136;2023-02-04T11:01:30;100711.34;;;6.59;63.00
76166;BME280;65085;46.718;20.136;2023-02-04T11:04:33;100714.00;;;6.32;64.02
76166;BME280;65085;46.718;20.136;2023-02-04T11:07:37;100753.69;;;6.07;64.00
76166;BME280;65085;46.718;20.136;2023-02-04T11:10:40;100760.28;;;5.86;63.26
76166;BME280;65085;46.718;20.136;2023-02-04T11:13:44;100807.44;;;5.47;65.70
76166;BME280;65085;46.718;20.136;2023-02-04T11:17:00;100831.19;;;5.33;71.71
76166;BME280;65085;46.718;20.136;2023-02-04T11:20:13;100839.72;;;4.94;75.40
76166;BME280;65085;46.718;20.136;2023-02-04T11:23:31;100853.78;;;4.79;75.79
76166;BME280;65085;46.718;20.136;2023-02-04T11:26:35;100872.03;;;4.65;76.31
76166;BME280;65085;46.718;20.136;2023-02-04T11:29:39;100882.66;;;4.62;76.17
76166;BME280;65085;46.718;20.136;2023-02-04T11:32:55;100888.06;;;4.53;73.56
76166;BME280;65085;46.718;20.136;2023-02-04T11:36:01;100889.03;;;4.57;71.54
76166;BME280;65085;46.718;20.136;2023-02-04T11:39:14;100902.63;;;4.52;70.37
76166;BME280;65085;46.718;20.136;2023-02-04T11:42:22;100893.75;;;4.60;68.10
76166;BME280;65085;46.718;20.136;2023-02-04T11:45:29;100912.44;;;4.57;67.52
76166;BME280;65085;46.718;20.136;2023-02-04T11:48:34;100925.03;;;4.73;65.88
76166;BME280;65085;46.718;20.136;2023-02-04T11:51:37;100932.22;;;4.90;64.40
76166;BME280;65085;46.718;20.136;2023-02-04T11:54:41;100939.31;;;4.94;65.59
76166;BME280;65085;46.718;20.136;2023-02-04T11:57:44;100952.91;;;4.98;63.77
76166;BME280;65085;46.718;20.136;2023-02-04T12:00:49;100960.56;;;5.16;63.94
76166;BME280;65085;46.718;20.136;2023-02-04T12:03:56;100966.97;;;5.32;62.31
76166;BME280;65085;46.718;20.136;2023-02-04T12:07:01;100973.03;;;5.29;61.64
76166;BME280;65085;46.718;20.136;2023-02-04T12:10:18;100994.06;;;5.36;62.93
76166;BME280;65085;46.718;20.136;2023-02-04T12:13:23;100983.97;;;5.24;62.75
76166;BME280;65085;46.718;20.136;2023-02-04T12:16:26;101010.03;;;5.12;61.59
76166;BME280;65085;46.718;20.136;2023-02-04T12:19:29;101008.97;;;5.04;62.16
76166;BME280;65085;46.718;20.136;2023-02-04T12:22:32;101016.84;;;5.09;60.63
76166;BME280;65085;46.718;20.136;2023-02-04T12:25:36;101020.66;;;5.08;60.05
76166;BME280;65085;46.718;20.136;2023-02-04T12:28:38;101023.63;;;5.15;59.20
76166;BME280;65085;46.718;20.136;2023-02-04T12:31:41;101044.44;;;5.06;59.52
76166;BME280;65085;46.718;20.136;2023-02-04T12:34:44;101052.34;;;5.03;57.48
76166;BME280;65085;46.718;20.136;2023-02-04T12:37:47;101063.44;;;5.01;58.66
76166;BME280;65085;46.718;20.136;2023-02-04T12:40:51;101067.69;;;5.11;58.35
76166;BME280;65085;46.718;20.136;2023-02-04T12:43:54;101079.47;;;5.35;55.89
76166;BME280;65085;46.718;20.136;2023-02-04T12:46:57;101068.59;;;5.23;57.03
76166;BME280;65085;46.718;20.136;2023-02-04T12:50:00;101099.16;;;5.27;56.43
76166;BME280;65085;46.718;20.136;2023-02-04T12:53:03;101092.06;;;5.14;54.30
76166;BME280;65085;46.718;20.136;2023-02-04T12:56:09;101115.63;;;5.26;54.38
76166;BME280;65085;46.718;20.136;2023-02-04T12:59:11;101113.09;;;5.29;56.25
76166;BME280;65085;46.718;20.136;2023-02-04T13:02:14;101123.50;;;5.39;53.64
76166;BME280;65085;46.718;20.136;2023-02-04T13:05:17;101135.19;;;5.52;52.77
76166;BME280;65085;46.718;20.136;2023-02-04T13:08:20;101145.28;;;5.55;53.04
76166;BME280;65085;46.718;20.136;2023-02-04T13:11:24;101149.78;;;5.51;53.36
76166;BME280;65085;46.718;20.136;2023-02-04T13:14:27;101159.88;;;5.62;53.13
76166;BME280;65085;46.718;20.136;2023-02-04T13:17:30;101169.75;;;5.50;50.97
76166;BME280;65085;46.718;20.136;2023-02-04T13:20:32;101167.19;;;5.53;51.64
76166;BME280;65085;46.718;20.136;2023-02-04T13:23:35;101177.22;;;5.44;51.48
76166;BME280;65085;46.718;20.136;2023-02-04T13:26:39;101181.78;;;5.52;53.21
76166;BME280;65085;46.718;20.136;2023-02-04T13:29:42;101185.25;;;5.61;52.53
76166;BME280;65085;46.718;20.136;2023-02-04T13:32:44;101201.44;;;5.53;52.91
76166;BME280;65085;46.718;20.136;2023-02-04T13:35:47;101199.56;;;5.45;52.07
76166;BME280;65085;46.718;20.136;2023-02-04T13:38:50;101208.59;;;5.49;53.12
76166;BME280;65085;46.718;20.136;2023-02-04T13:41:54;101224.72;;;5.57;50.11
76166;BME280;65085;46.718;20.136;2023-02-04T13:44:57;101214.84;;;5.70;51.43
76166;BME280;65085;46.718;20.136;2023-02-04T13:48:00;101240.63;;;6.25;49.87
76166;BME280;65085;46.718;20.136;2023-02-04T13:51:04;101238.97;;;6.62;50.28
76166;BME280;65085;46.718;20.136;2023-02-04T13:54:07;101235.59;;;6.85;49.70
76166;BME280;65085;46.718;20.136;2023-02-04T13:57:12;101255.34;;;6.77;46.42
76166;BME280;65085;46.718;20.136;2023-02-04T14:00:14;101264.53;;;6.85;45.86
76166;BME280;65085;46.718;20.136;2023-02-04T14:03:17;101300.25;;;6.61;45.63
76166;BME280;65085;46.718;20.136;2023-02-04T14:06:20;101302.91;;;6.41;45.89
76166;BME280;65085;46.718;20.136;2023-02-04T14:09:24;101315.56;;;6.20;48.05
76166;BME280;65085;46.718;20.136;2023-02-04T14:12:28;101311.16;;;6.44;46.51
76166;BME280;65085;46.718;20.136;2023-02-04T14:15:31;101317.75;;;5.89;47.24
76166;BME280;65085;46.718;20.136;2023-02-04T14:18:35;101319.50;;;5.68;47.46
76166;BME280;65085;46.718;20.136;2023-02-04T14:21:38;101328.88;;;5.53;48.11
76166;BME280;65085;46.718;20.136;2023-02-04T14:24:41;101345.19;;;5.65;47.59
76166;BME280;65085;46.718;20.136;2023-02-04T14:27:45;101339.63;;;5.70;46.71
76166;BME280;65085;46.718;20.136;2023-02-04T14:30:48;101334.25;;;5.62;48.61
76166;BME280;65085;46.718;20.136;2023-02-04T14:33:51;101324.72;;;5.90;48.17
76166;BME280;65085;46.718;20.136;2023-02-04T14:36:53;101349.75;;;5.99;47.66
76166;BME280;65085;46.718;20.136;2023-02-04T14:39:56;101357.00;;;6.15;48.62
76166;BME280;65085;46.718;20.136;2023-02-04T14:43:00;101363.31;;;6.19;48.82
76166;BME280;65085;46.718;20.136;2023-02-04T14:46:03;101362.63;;;6.39;45.74
76166;BME280;65085;46.718;20.136;2023-02-04T14:49:07;101375.47;;;6.34;45.78
76166;BME280;65085;46.718;20.136;2023-02-04T14:52:09;101391.28;;;6.06;45.63
76166;BME280;65085;46.718;20.136;2023-02-04T14:55:14;101384.97;;;6.02;48.55
76166;BME280;65085;46.718;20.136;2023-02-04T14:58:18;101407.16;;;5.14;47.90
76166;BME280;65085;46.718;20.136;2023-02-04T15:01:21;101403.03;;;4.52;48.62
76166;BME280;65085;46.718;20.136;2023-02-04T15:04:24;101406.75;;;4.34;49.27
76166;BME280;65085;46.718;20.136;2023-02-04T15:07:27;101411.81;;;4.05;48.83
76166;BME280;65085;46.718;20.136;2023-02-04T15:10:33;101418.50;;;3.86;49.20
76166;BME280;65085;46.718;20.136;2023-02-04T15:13:38;101433.34;;;3.61;49.46
76166;BME280;65085;46.718;20.136;2023-02-04T15:16:40;101449.72;;;3.38;49.79
76166;BME280;65085;46.718;20.136;2023-02-04T15:19:44;101458.09;;;3.23;50.88
76166;BME280;65085;46.718;20.136;2023-02-04T15:22:47;101466.38;;;3.13;49.30
76166;BME280;65085;46.718;20.136;2023-02-04T15:25:53;101479.00;;;2.99;51.04
76166;BME280;65085;46.718;20.136;2023-02-04T15:29:00;101488.34;;;2.88;51.08
76166;BME280;65085;46.718;20.136;2023-02-04T15:32:03;101492.63;;;2.76;50.47
76166;BME280;65085;46.718;20.136;2023-02-04T15:35:06;101513.09;;;2.72;52.39
76166;BME280;65085;46.718;20.136;2023-02-04T15:38:09;101524.78;;;2.62;50.79
76166;BME280;65085;46.718;20.136;2023-02-04T15:41:13;101537.88;;;2.50;50.72
76166;BME280;65085;46.718;20.136;2023-02-04T15:44:17;101538.94;;;2.36;52.95
76166;BME280;65085;46.718;20.136;2023-02-04T15:47:19;101557.97;;;2.34;51.40
76166;BME280;65085;46.718;20.136;2023-02-04T15:50:23;101564.00;;;2.26;51.78
76166;BME280;65085;46.718;20.136;2023-02-04T15:53:26;101579.09;;;2.22;54.91
76166;BME280;65085;46.718;20.136;2023-02-04T15:56:29;101584.75;;;2.21;52.43
76166;BME280;65085;46.718;20.136;2023-02-04T15:59:33;101590.63;;;2.04;53.83
76166;BME280;65085;46.718;20.136;2023-02-04T16:02:35;101612.56;;;2.06;52.48